Time;durP1;ratioP1;P1;durP2;ratioP2;P2;SDS_P1;SDS_P2;PMS_P1;PMS_P2;Temp;Humidity;BMP_temperature;BMP_pressure;BME280_temperature;BME280_humidity;BME280_pressure;Samples;Min_cycle;Max_cycle;Signal;HPM_P1;HPM_P2
2023/08/19 00:00:59;;;;;;;10.13;9.03;;;23.50;99.90;;;;;;5016785;28;20500;-63
2023/08/19 00:03:26;;;;;;;15.23;11.27;;;23.50;99.90;;;;;;5016558;28;20447;-61
2023/08/19 00:05:53;;;;;;;10.17;8.83;;;23.50;99.90;;;;;;5016687;28;20468;-62
2023/08/19 00:08:21;;;;;;;12.20;10.03;;;23.40;99.90;;;;;;5016784;28;20438;-61
2023/08/19 00:10:48;;;;;;;10.17;8.83;;;23.40;99.90;;;;;;5016478;28;20556;-61
2023/08/19 00:13:15;;;;;;;8.93;8.03;;;23.40;99.90;;;;;;5016472;28;20511;-62
2023/08/19 00:15:42;;;;;;;10.10;8.87;;;23.40;99.90;;;;;;5017197;28;21049;-60
2023/08/19 00:18:09;;;;;;;9.73;8.73;;;23.30;99.90;;;;;;5016862;28;20540;-61
2023/08/19 00:20:37;;;;;;;12.67;8.30;;;23.30;99.90;;;;;;5017126;28;20473;-60
2023/08/19 00:23:04;;;;;;;9.40;7.37;;;23.30;99.90;;;;;;5016267;28;20446;-61
2023/08/19 00:25:33;;;;;;;8.80;8.00;;;23.30;99.90;;;;;;5016583;28;20441;-65
2023/08/19 00:28:03;;;;;;;14.70;10.30;;;23.20;99.90;;;;;;5016544;28;20492;-62
2023/08/19 00:30:30;;;;;;;11.00;8.70;;;23.10;99.90;;;;;;5016051;28;20527;-62
2023/08/19 00:32:57;;;;;;;12.03;9.37;;;23.10;99.90;;;;;;5016438;28;20540;-62
2023/08/19 00:35:24;;;;;;;11.93;8.77;;;23.10;99.90;;;;;;5016909;28;20532;-62
2023/08/19 00:37:51;;;;;;;11.20;8.67;;;23.00;99.90;;;;;;5020331;28;20511;-61
2023/08/19 00:40:18;;;;;;;9.23;8.33;;;23.00;99.90;;;;;;5020541;28;20485;-61
2023/08/19 00:42:46;;;;;;;8.67;7.77;;;23.00;99.90;;;;;;5016384;28;20532;-61
2023/08/19 00:45:13;;;;;;;12.67;8.83;;;23.00;99.90;;;;;;5016565;28;20476;-61
2023/08/19 00:47:41;;;;;;;11.50;9.13;;;22.90;99.90;;;;;;5015568;28;20472;-62
2023/08/19 00:50:11;;;;;;;9.60;8.63;;;22.90;99.90;;;;;;5021963;28;20480;-61
2023/08/19 00:52:39;;;;;;;10.27;8.33;;;21.30;99.90;;;;;;5019634;28;20894;-62
2023/08/19 00:55:07;;;;;;;11.80;9.80;;;22.90;99.90;;;;;;5023166;28;20493;-60
2023/08/19 00:57:37;;;;;;;8.90;8.00;;;22.80;99.90;;;;;;5025289;28;20441;-61
2023/08/19 01:00:07;;;;;;;9.93;8.93;;;22.90;99.90;;;;;;5025867;28;20980;-63
2023/08/19 01:02:34;;;;;;;11.43;9.23;;;22.80;99.90;;;;;;5025384;28;20528;-63
2023/08/19 01:05:01;;;;;;;11.23;9.40;;;22.80;99.90;;;;;;5026182;28;20862;-63
2023/08/19 01:07:36;;;;;;;10.00;8.77;;;22.80;99.90;;;;;;5030835;28;20441;-64
2023/08/19 01:10:11;;;;;;;9.73;8.30;;;22.70;99.90;;;;;;5029574;28;20488;-61
2023/08/19 01:12:43;;;;;;;11.37;9.43;;;22.70;99.90;;;;;;5027295;28;20424;-64
2023/08/19 01:15:18;;;;;;;9.80;8.80;;;22.70;99.90;;;;;;5028491;28;20496;-63
2023/08/19 01:17:47;;;;;;;10.23;9.23;;;22.70;99.90;;;;;;5021853;28;20447;-63
2023/08/19 01:20:15;;;;;;;10.90;9.33;;;22.70;99.90;;;;;;5025477;28;20491;-62
2023/08/19 01:22:56;;;;;;;11.50;9.20;;;22.70;99.90;;;;;;5024919;28;20444;-62
2023/08/19 01:25:26;;;;;;;10.30;9.33;;;24.20;99.90;;;;;;5025739;28;20476;-60
2023/08/19 01:27:53;;;;;;;9.03;7.80;;;22.70;99.90;;;;;;5016027;28;20441;-62
2023/08/19 01:30:20;;;;;;;9.90;8.60;;;22.70;99.90;;;;;;5029937;28;20488;-51
2023/08/19 01:32:48;;;;;;;9.03;8.20;;;22.70;99.90;;;;;;5030051;28;20918;-61
2023/08/19 01:35:16;;;;;;;9.50;8.60;;;22.70;99.90;;;;;;5024733;28;20524;-61
2023/08/19 01:37:51;;;;;;;11.30;7.97;;;22.60;99.90;;;;;;5026446;28;20473;-62
2023/08/19 01:40:20;;;;;;;11.97;9.83;;;22.60;99.90;;;;;;5029299;28;20460;-62
2023/08/19 01:42:50;;;;;;;9.60;8.70;;;22.60;99.90;;;;;;5030013;28;20936;-60
2023/08/19 01:45:18;;;;;;;11.67;8.00;;;22.60;99.90;;;;;;5030637;28;20580;-60
2023/08/19 01:47:44;;;;;;;10.20;9.10;;;22.60;99.90;;;;;;5031318;28;20493;-60
2023/08/19 01:50:11;;;;;;;13.33;9.60;;;22.50;99.90;;;;;;5028407;28;20500;-62
2023/08/19 01:52:38;;;;;;;10.00;9.00;;;22.50;99.90;;;;;;5024181;28;20480;-62
2023/08/19 01:55:06;;;;;;;12.67;8.47;;;22.50;99.90;;;;;;5024265;28;20445;-61
2023/08/19 01:57:33;;;;;;;10.10;9.10;;;22.50;99.90;;;;;;5023630;28;20472;-60
2023/08/19 02:00:03;;;;;;;9.87;8.83;;;22.50;99.90;;;;;;5022861;28;20474;-60
2023/08/19 02:02:30;;;;;;;10.73;9.23;;;22.50;99.90;;;;;;5026763;28;20425;-60
2023/08/19 02:04:57;;;;;;;14.77;9.60;;;22.50;99.90;;;;;;5029702;28;20456;-61
2023/08/19 02:07:26;;;;;;;14.37;10.43;;;22.40;99.90;;;;;;5027927;28;20548;-61
2023/08/19 02:09:54;;;;;;;9.53;8.53;;;22.40;99.90;;;;;;5026545;28;20472;-62
2023/08/19 02:12:21;;;;;;;10.03;9.00;;;22.40;99.90;;;;;;5017586;28;20453;-62
2023/08/19 02:14:48;;;;;;;9.60;8.60;;;22.40;99.90;;;;;;5019712;28;20445;-61
2023/08/19 02:17:16;;;;;;;11.37;9.83;;;22.40;99.90;;;;;;5016985;28;20497;-63
2023/08/19 02:19:43;;;;;;;12.50;9.30;;;22.40;99.90;;;;;;5018474;28;20473;-63
2023/08/19 02:22:09;;;;;;;11.17;9.10;;;22.30;99.90;;;;;;5019238;28;20818;-62
2023/08/19 02:24:36;;;;;;;13.07;8.37;;;22.30;99.90;;;;;;5022189;28;20464;-61
2023/08/19 02:27:03;;;;;;;11.13;9.00;;;22.30;99.90;;;;;;5025069;28;20984;-62
2023/08/19 02:29:32;;;;;;;10.47;9.37;;;22.30;99.90;;;;;;5025442;28;20460;-62
2023/08/19 02:31:59;;;;;;;10.90;9.10;;;22.30;99.90;;;;;;5026116;28;20489;-62
2023/08/19 02:34:29;;;;;;;11.13;8.73;;;22.30;99.90;;;;;;5025085;28;20452;-61
2023/08/19 02:36:56;;;;;;;10.90;9.37;;;22.30;99.90;;;;;;5031454;28;20465;-61
2023/08/19 02:39:23;;;;;;;11.43;8.77;;;22.20;99.90;;;;;;5028467;28;20504;-62
2023/08/19 02:41:50;;;;;;;9.67;8.53;;;22.20;99.90;;;;;;5023178;28;20497;-62
2023/08/19 02:44:17;;;;;;;13.00;9.90;;;22.20;99.90;;;;;;5015781;28;20445;-61
2023/08/19 02:46:44;;;;;;;13.30;10.37;;;22.20;99.90;;;;;;5014327;28;21013;-61
2023/08/19 02:49:11;;;;;;;9.50;8.50;;;22.20;99.90;;;;;;5014634;28;20532;-62
2023/08/19 02:51:39;;;;;;;10.20;9.20;;;22.20;99.90;;;;;;5014542;28;20584;-61
2023/08/19 02:54:06;;;;;;;11.07;9.43;;;22.10;99.90;;;;;;5014689;28;20528;-62
2023/08/19 02:56:33;;;;;;;11.33;10.23;;;22.10;99.90;;;;;;5015032;28;20465;-61
2023/08/19 02:59:00;;;;;;;10.73;9.63;;;22.10;99.90;;;;;;5015064;28;20477;-62
2023/08/19 03:01:27;;;;;;;14.03;9.60;;;22.10;99.90;;;;;;5014151;28;20544;-61
2023/08/19 03:03:54;;;;;;;13.50;10.27;;;22.10;99.90;;;;;;5015459;28;20907;-62
2023/08/19 03:06:21;;;;;;;15.23;9.80;;;22.10;99.90;;;;;;5014249;28;20465;-62
2023/08/19 03:08:49;;;;;;;9.80;8.80;;;22.10;99.90;;;;;;5014501;28;20432;-59
2023/08/19 03:11:16;;;;;;;10.10;9.07;;;22.10;99.90;;;;;;5017250;28;20519;-61
2023/08/19 03:13:43;;;;;;;11.17;9.80;;;22.10;99.90;;;;;;5017996;28;20517;-61
2023/08/19 03:16:10;;;;;;;12.40;10.33;;;22.10;99.90;;;;;;5017517;28;20525;-62
2023/08/19 03:18:37;;;;;;;9.93;8.87;;;22.00;99.90;;;;;;5017926;28;20492;-63
2023/08/19 03:21:04;;;;;;;12.13;10.20;;;22.00;99.90;;;;;;5017474;28;20537;-62
2023/08/19 03:23:31;;;;;;;11.43;9.30;;;22.00;99.90;;;;;;5017838;28;20794;-62
2023/08/19 03:25:59;;;;;;;12.90;10.10;;;22.00;99.90;;;;;;5020184;28;20965;-62
2023/08/19 03:28:26;;;;;;;11.10;10.00;;;22.00;99.90;;;;;;5018034;28;20455;-58
2023/08/19 03:30:53;;;;;;;15.70;10.03;;;21.90;99.90;;;;;;5017525;28;20484;-62
2023/08/19 03:33:20;;;;;;;11.67;10.47;;;21.90;99.90;;;;;;5017025;28;20449;-61
2023/08/19 03:35:48;;;;;;;12.87;10.60;;;21.90;99.90;;;;;;5018410;28;20814;-64
2023/08/19 03:38:16;;;;;;;15.00;10.03;;;21.80;99.90;;;;;;5017594;28;20937;-62
2023/08/19 03:40:43;;;;;;;10.23;9.20;;;21.80;99.90;;;;;;5017224;28;20545;-61
2023/08/19 03:43:11;;;;;;;12.13;10.93;;;21.70;99.90;;;;;;5018492;28;20477;-61
2023/08/19 03:45:38;;;;;;;11.00;9.90;;;21.70;99.90;;;;;;5022966;28;20543;-61
2023/08/19 03:48:06;;;;;;;14.43;9.80;;;21.70;99.90;;;;;;5030126;28;20806;-60
2023/08/19 03:50:32;;;;;;;11.53;9.57;;;21.70;99.90;;;;;;5029858;28;20485;-62
2023/08/19 03:52:59;;;;;;;12.20;10.47;;;21.70;99.90;;;;;;5030516;28;20464;-60
2023/08/19 03:55:30;;;;;;;12.20;10.63;;;21.70;99.90;;;;;;5029428;28;20481;-62
2023/08/19 03:58:00;;;;;;;12.20;10.30;;;21.60;99.90;;;;;;5029678;28;20460;-63
2023/08/19 04:00:28;;;;;;;14.30;11.90;;;21.60;99.90;;;;;;5030211;28;20465;-62
2023/08/19 04:02:55;;;;;;;11.47;10.10;;;21.70;99.90;;;;;;5026382;28;20468;-62
2023/08/19 04:05:22;;;;;;;18.33;11.60;;;21.60;99.90;;;;;;5018005;28;20980;-61
2023/08/19 04:07:49;;;;;;;14.13;11.47;;;21.60;99.90;;;;;;5016820;28;20568;-60
2023/08/19 04:10:16;;;;;;;17.10;11.30;;;21.60;99.90;;;;;;5018104;28;20472;-62
2023/08/19 04:12:43;;;;;;;13.23;9.60;;;21.60;99.90;;;;;;5016827;28;20483;-63
2023/08/19 04:15:11;;;;;;;12.83;11.23;;;21.60;99.90;;;;;;5016896;28;20455;-60
2023/08/19 04:17:39;;;;;;;15.30;10.80;;;21.60;99.90;;;;;;5025919;28;20473;-61
2023/08/19 04:20:09;;;;;;;13.07;9.83;;;21.60;99.90;;;;;;5017187;28;20441;-61
2023/08/19 04:22:36;;;;;;;15.97;12.03;;;21.60;99.90;;;;;;5015580;28;20465;-58
2023/08/19 04:25:03;;;;;;;13.10;11.77;;;21.70;99.90;;;;;;5018509;28;20625;-62
2023/08/19 04:27:31;;;;;;;11.90;10.07;;;21.70;99.90;;;;;;5028137;28;20473;-61
2023/08/19 04:29:57;;;;;;;14.90;10.70;;;21.70;99.90;;;;;;5026269;28;20461;-62
2023/08/19 04:32:24;;;;;;;15.33;12.93;;;21.70;99.90;;;;;;5028230;28;20481;-61
2023/08/19 04:34:53;;;;;;;13.57;10.43;;;21.70;99.90;;;;;;5027911;28;20460;-61
2023/08/19 04:37:19;;;;;;;13.40;11.10;;;21.70;99.90;;;;;;5029032;28;20456;-62
2023/08/19 04:39:46;;;;;;;11.97;10.67;;;21.70;99.90;;;;;;5017128;28;20501;-63
2023/08/19 04:42:13;;;;;;;14.33;11.57;;;21.70;99.90;;;;;;5015901;28;20537;-62
2023/08/19 04:44:40;;;;;;;11.50;10.13;;;21.80;99.90;;;;;;5017007;28;20579;-63
2023/08/19 04:47:07;;;;;;;13.73;11.40;;;21.80;99.90;;;;;;5016161;28;20445;-61
2023/08/19 04:49:34;;;;;;;15.67;11.00;;;21.80;99.90;;;;;;5028445;28;20521;-62
2023/08/19 04:52:03;;;;;;;13.87;10.33;;;21.80;99.90;;;;;;5035877;28;20476;-62
2023/08/19 04:54:32;;;;;;;13.97;10.87;;;21.90;99.90;;;;;;5031399;28;20464;-61
2023/08/19 04:56:59;;;;;;;15.37;11.60;;;21.90;99.90;;;;;;5027371;28;20476;-61
2023/08/19 04:59:26;;;;;;;11.57;9.70;;;21.90;99.90;;;;;;5026609;28;20561;-62
2023/08/19 05:01:52;;;;;;;13.50;11.33;;;21.90;99.90;;;;;;5027870;28;20465;-61
2023/08/19 05:04:19;;;;;;;13.33;11.80;;;22.00;99.90;;;;;;5027529;28;20456;-61
2023/08/19 05:06:46;;;;;;;14.80;11.73;;;22.10;99.90;;;;;;5027780;28;20440;-60
2023/08/19 05:09:14;;;;;;;13.03;11.20;;;22.10;99.90;;;;;;5021589;28;20552;-63
2023/08/19 05:11:41;;;;;;;15.27;10.47;;;22.20;99.90;;;;;;5015717;28;20513;-60
2023/08/19 05:14:09;;;;;;;13.93;12.07;;;22.20;99.90;;;;;;5015919;28;20469;-62
2023/08/19 05:16:35;;;;;;;17.20;12.67;;;22.30;99.90;;;;;;5024130;28;20442;-59
2023/08/19 05:19:14;;;;;;;15.27;12.20;;;22.40;99.90;;;;;;5027160;28;20489;-60
2023/08/19 05:21:41;;;;;;;18.80;11.87;;;22.40;99.90;;;;;;5027348;28;20452;-61
2023/08/19 05:24:12;;;;;;;11.87;10.50;;;22.50;99.90;;;;;;5026279;28;20476;-62
2023/08/19 05:26:44;;;;;;;16.03;12.90;;;22.60;99.90;;;;;;5026003;28;20460;-62
2023/08/19 05:29:11;;;;;;;14.97;12.57;;;22.60;99.90;;;;;;5026461;28;20509;-62
2023/08/19 05:31:38;;;;;;;13.23;11.30;;;22.70;99.90;;;;;;5025730;28;20564;-62
2023/08/19 05:34:07;;;;;;;13.60;11.97;;;22.70;99.90;;;;;;5026137;28;20467;-60
2023/08/19 05:36:34;;;;;;;14.60;11.40;;;22.80;99.90;;;;;;5015930;28;20472;-61
2023/08/19 05:39:01;;;;;;;12.53;10.43;;;22.80;99.90;;;;;;5015339;28;20569;-63
2023/08/19 05:41:28;;;;;;;12.50;10.93;;;22.80;99.90;;;;;;5015364;28;20949;-63
2023/08/19 05:43:56;;;;;;;13.77;12.20;;;22.80;99.90;;;;;;5015230;28;20572;-61
2023/08/19 05:46:23;;;;;;;12.97;11.00;;;22.90;99.90;;;;;;5015141;28;20523;-63
2023/08/19 05:48:50;;;;;;;14.40;12.13;;;22.90;99.90;;;;;;5017427;28;20551;-64
2023/08/19 05:51:17;;;;;;;15.70;11.57;;;22.90;99.90;;;;;;5018958;28;20485;-63
2023/08/19 05:53:44;;;;;;;12.50;11.30;;;22.90;99.90;;;;;;5020250;28;20465;-62
2023/08/19 05:56:11;;;;;;;15.10;10.90;;;23.00;99.90;;;;;;5022676;28;20456;-61
2023/08/19 05:58:38;;;;;;;14.37;12.87;;;23.00;99.90;;;;;;5025201;28;20462;-62
2023/08/19 06:01:09;;;;;;;13.13;11.73;;;23.10;99.90;;;;;;5024666;28;20457;-61
2023/08/19 06:03:37;;;;;;;13.77;12.37;;;23.10;99.90;;;;;;5026111;28;20425;-61
2023/08/19 06:06:05;;;;;;;13.10;11.70;;;23.10;99.90;;;;;;5025974;28;20476;-61
2023/08/19 06:08:32;;;;;;;15.37;12.70;;;23.20;99.90;;;;;;5016701;28;20449;-59
2023/08/19 06:11:02;;;;;;;15.10;13.30;;;23.20;99.90;;;;;;5014883;28;20552;-60
2023/08/19 06:13:29;;;;;;;15.53;12.43;;;23.20;99.90;;;;;;5014701;28;20487;-61
2023/08/19 06:15:56;;;;;;;12.90;11.63;;;23.30;99.90;;;;;;5015224;28;20473;-62
2023/08/19 06:18:24;;;;;;;13.97;12.03;;;23.40;99.90;;;;;;5017481;28;20445;-64
2023/08/19 06:20:52;;;;;;;15.80;13.87;;;23.40;99.90;;;;;;5018453;28;20441;-63
2023/08/19 06:23:19;;;;;;;15.63;11.93;;;23.40;99.90;;;;;;5022328;28;20488;-62
2023/08/19 06:25:46;;;;;;;16.53;11.43;;;23.40;99.90;;;;;;5024661;28;20445;-60
2023/08/19 06:28:13;;;;;;;14.30;12.10;;;23.40;99.90;;;;;;5019799;28;20469;-61
2023/08/19 06:30:41;;;;;;;13.87;12.43;;;23.50;99.90;;;;;;5019995;28;20493;-61
2023/08/19 06:33:09;;;;;;;15.27;13.33;;;23.50;99.90;;;;;;5025675;28;20485;-61
2023/08/19 06:35:38;;;;;;;17.67;12.97;;;23.50;99.90;;;;;;5024869;28;20465;-62
2023/08/19 06:38:14;;;;;;;15.50;12.93;;;23.50;99.90;;;;;;5015987;28;20453;-62
2023/08/19 06:40:49;;;;;;;18.27;12.73;;;23.50;99.90;;;;;;5015990;28;20550;-61
2023/08/19 06:43:17;;;;;;;14.03;12.50;;;23.50;99.90;;;;;;5014377;28;20519;-62
2023/08/19 06:45:45;;;;;;;16.10;13.40;;;23.40;99.90;;;;;;5017836;28;20477;-61
2023/08/19 06:48:14;;;;;;;13.80;12.30;;;23.40;99.90;;;;;;5018125;28;20441;-64
2023/08/19 06:50:43;;;;;;;14.83;13.37;;;23.40;99.90;;;;;;5018338;28;20546;-62
2023/08/19 06:53:11;;;;;;;14.37;12.70;;;23.40;99.90;;;;;;5018776;28;20564;-62
2023/08/19 06:55:41;;;;;;;15.83;12.67;;;23.40;99.90;;;;;;5020971;28;20977;-61
2023/08/19 06:58:13;;;;;;;15.20;13.63;;;23.40;99.90;;;;;;5020174;28;20519;-62
2023/08/19 07:00:42;;;;;;;18.43;13.77;;;23.40;99.90;;;;;;5017837;28;20559;-62
2023/08/19 07:03:11;;;;;;;18.10;14.13;;;23.50;99.90;;;;;;5018160;28;20836;-64
2023/08/19 07:05:39;;;;;;;14.53;12.60;;;23.50;99.90;;;;;;5017682;28;20519;-60
2023/08/19 07:08:09;;;;;;;16.00;13.00;;;23.50;99.90;;;;;;5017692;28;20488;-62
2023/08/19 07:10:37;;;;;;;17.20;13.37;;;23.60;99.90;;;;;;5017686;28;20483;-62
2023/08/19 07:13:05;;;;;;;16.80;12.70;;;23.60;99.90;;;;;;5018287;28;20531;-62
2023/08/19 07:15:32;;;;;;;14.27;11.80;;;23.70;99.90;;;;;;5023445;28;20489;-62
2023/08/19 07:18:01;;;;;;;16.27;13.80;;;23.80;99.90;;;;;;5026378;28;20910;-62
2023/08/19 07:20:28;;;;;;;13.47;12.07;;;23.90;99.90;;;;;;5026513;28;21020;-61
2023/08/19 07:22:57;;;;;;;16.47;13.10;;;24.00;99.90;;;;;;5026982;28;20517;-60
2023/08/19 07:25:25;;;;;;;17.40;13.33;;;24.10;99.90;;;;;;5026414;28;20508;-63
2023/08/19 07:27:54;;;;;;;14.90;13.33;;;24.20;99.90;;;;;;5023089;28;20453;-62
2023/08/19 07:30:22;;;;;;;17.03;12.77;;;24.30;99.90;;;;;;5019196;28;20477;-64
2023/08/19 07:32:49;;;;;;;19.83;14.70;;;24.40;99.90;;;;;;5017933;28;20555;-63
2023/08/19 07:35:16;;;;;;;15.47;11.87;;;24.50;99.90;;;;;;5018665;28;20558;-60
2023/08/19 07:37:43;;;;;;;15.40;13.03;;;24.60;99.90;;;;;;5017178;28;20532;-62
2023/08/19 07:40:12;;;;;;;18.27;13.23;;;24.70;99.90;;;;;;5017381;28;20446;-62
2023/08/19 07:42:40;;;;;;;14.27;12.87;;;24.90;99.90;;;;;;5017163;28;20426;-61
2023/08/19 07:45:08;;;;;;;15.10;13.40;;;25.00;99.90;;;;;;5017257;28;20524;-62
2023/08/19 07:47:35;;;;;;;15.20;11.60;;;25.10;99.90;;;;;;5018931;28;20453;-61
2023/08/19 07:50:02;;;;;;;14.10;12.70;;;25.20;99.90;;;;;;5021824;28;20810;-62
2023/08/19 07:52:29;;;;;;;14.00;12.60;;;25.40;99.90;;;;;;5026993;28;20576;-61
2023/08/19 07:54:57;;;;;;;13.27;11.83;;;25.50;99.90;;;;;;5026781;28;20508;-65
2023/08/19 07:57:24;;;;;;;12.97;11.63;;;25.80;99.90;;;;;;5026249;28;20477;-60
2023/08/19 07:59:52;;;;;;;12.33;11.13;;;26.60;99.90;;;;;;5017653;28;20539;-61
2023/08/19 08:02:19;;;;;;;12.17;10.70;;;28.10;99.90;;;;;;5016815;28;20520;-62
2023/08/19 08:04:46;;;;;;;13.70;10.80;;;29.70;99.90;;;;;;5020090;28;20472;-62
2023/08/19 08:07:13;;;;;;;13.87;11.33;;;31.20;99.90;;;;;;5020175;28;20465;-62
2023/08/19 08:09:41;;;;;;;10.50;9.50;;;32.90;99.90;;;;;;5020670;28;20479;-61
2023/08/19 08:12:09;;;;;;;11.87;10.77;;;34.10;99.90;;;;;;5020934;28;20553;-62
2023/08/19 08:14:36;;;;;;;12.03;10.83;;;35.30;99.90;;;;;;5021541;28;20489;-62
2023/08/19 08:17:04;;;;;;;14.00;12.73;;;36.40;99.90;;;;;;5016648;28;20561;-62
2023/08/19 08:19:31;;;;;;;11.07;9.77;;;37.10;94.70;;;;;;5016676;28;20469;-62
2023/08/19 08:21:58;;;;;;;11.07;10.07;;;37.60;92.30;;;;;;5016847;28;20552;-62
2023/08/19 08:24:25;;;;;;;11.03;9.97;;;38.40;86.40;;;;;;5016946;28;20528;-62
2023/08/19 08:26:52;;;;;;;11.73;10.63;;;38.90;82.20;;;;;;5020111;28;20477;-62
2023/08/19 08:29:18;;;;;;;11.60;10.50;;;38.80;78.80;;;;;;5034257;28;20449;-63
2023/08/19 08:31:45;;;;;;;11.50;10.37;;;38.90;78.40;;;;;;5031266;28;20485;-61
2023/08/19 08:34:14;;;;;;;12.33;11.20;;;38.90;75.90;;;;;;5018425;28;20457;-62
2023/08/19 08:36:40;;;;;;;10.67;9.80;;;39.00;76.10;;;;;;5016737;28;20555;-63
2023/08/19 08:39:07;;;;;;;11.57;10.30;;;39.00;75.20;;;;;;5018085;28;20532;-62
2023/08/19 08:41:38;;;;;;;11.23;10.23;;;38.90;74.70;;;;;;5018864;28;20465;-63
2023/08/19 08:44:07;;;;;;;11.40;9.77;;;39.00;73.40;;;;;;5020027;28;20440;-62
2023/08/19 08:46:35;;;;;;;11.97;10.80;;;39.20;71.60;;;;;;5020129;28;20543;-63
2023/08/19 08:49:03;;;;;;;11.07;10.10;;;39.20;71.50;;;;;;5019138;28;20532;-62
2023/08/19 08:51:34;;;;;;;10.80;9.70;;;39.40;69.30;;;;;;5022687;28;20549;-63
2023/08/19 08:54:03;;;;;;;14.50;12.87;;;39.30;69.40;;;;;;5023870;28;20891;-60
2023/08/19 08:56:30;;;;;;;11.73;10.53;;;39.30;68.80;;;;;;5016814;28;20500;-63
2023/08/19 08:58:57;;;;;;;11.83;10.73;;;39.20;69.70;;;;;;5016027;28;20517;-62
2023/08/19 09:01:26;;;;;;;11.00;10.10;;;39.00;69.40;;;;;;5015884;28;20528;-61
2023/08/19 09:04:02;;;;;;;11.10;9.03;;;39.10;69.00;;;;;;5015629;28;20425;-62
2023/08/19 09:06:29;;;;;;;13.07;10.27;;;39.40;65.90;;;;;;5015832;28;20444;-63
2023/08/19 09:09:01;;;;;;;11.57;10.50;;;39.50;66.40;;;;;;5015054;28;20472;-62
2023/08/19 09:11:29;;;;;;;10.67;9.67;;;39.30;68.20;;;;;;5015769;28;20468;-62
2023/08/19 09:14:02;;;;;;;10.40;9.50;;;39.20;68.20;;;;;;5018119;28;20472;-62
2023/08/19 09:16:29;;;;;;;10.93;10.03;;;39.50;66.40;;;;;;5019252;28;20469;-62
2023/08/19 09:18:56;;;;;;;9.23;8.40;;;39.60;66.70;;;;;;5022106;28;20802;-62
2023/08/19 09:21:24;;;;;;;9.10;8.30;;;39.60;66.10;;;;;;5022769;28;20902;-61
2023/08/19 09:23:54;;;;;;;9.70;8.80;;;39.80;64.90;;;;;;5022872;28;20504;-63
2023/08/19 09:26:23;;;;;;;10.20;9.10;;;39.90;63.50;;;;;;5023572;28;20441;-61
2023/08/19 09:28:52;;;;;;;9.23;8.43;;;40.00;63.30;;;;;;5033177;28;20472;-61
2023/08/19 09:31:20;;;;;;;8.97;8.27;;;40.00;63.30;;;;;;5034155;28;20468;-60
2023/08/19 09:33:48;;;;;;;9.17;8.47;;;40.10;62.80;;;;;;5034815;28;20465;-61
2023/08/19 09:36:15;;;;;;;9.37;8.57;;;40.50;60.90;;;;;;5022161;28;20940;-63
2023/08/19 09:38:43;;;;;;;9.30;8.37;;;40.70;60.20;;;;;;5016276;28;20520;-61
2023/08/19 09:41:11;;;;;;;12.03;10.20;;;40.50;59.60;;;;;;5016563;28;20480;-62
2023/08/19 09:43:41;;;;;;;13.77;10.70;;;40.40;61.00;;;;;;5018823;28;20437;-62
2023/08/19 09:46:08;;;;;;;9.10;8.20;;;40.20;60.80;;;;;;5021716;28;20422;-63
2023/08/19 09:48:36;;;;;;;9.47;8.57;;;40.10;60.40;;;;;;5027036;28;20453;-62
2023/08/19 09:51:03;;;;;;;8.87;8.07;;;40.30;59.90;;;;;;5027191;28;20521;-61
2023/08/19 09:53:31;;;;;;;11.90;7.77;;;40.40;59.00;;;;;;5027975;28;20485;-62
2023/08/19 09:55:58;;;;;;;9.17;8.37;;;40.40;59.50;;;;;;5021440;28;20455;-60
2023/08/19 09:58:31;;;;;;;9.37;8.47;;;40.30;58.70;;;;;;5022412;28;20472;-63
2023/08/19 10:00:59;;;;;;;8.50;7.47;;;40.40;59.60;;;;;;5022090;28;20457;-62
2023/08/19 10:03:26;;;;;;;9.00;8.10;;;40.40;58.20;;;;;;5016473;28;20555;-62
2023/08/19 10:05:55;;;;;;;9.43;7.67;;;40.30;58.30;;;;;;5015515;28;20530;-61
2023/08/19 10:08:27;;;;;;;10.40;9.13;;;40.20;58.40;;;;;;5014621;28;20481;-61
2023/08/19 10:10:54;;;;;;;9.80;8.40;;;40.00;59.70;;;;;;5014778;28;20862;-62
2023/08/19 10:13:25;;;;;;;9.33;8.47;;;40.00;59.80;;;;;;5014912;28;20579;-63
2023/08/19 10:15:55;;;;;;;10.00;7.90;;;40.00;58.60;;;;;;5015123;28;20484;-63
2023/08/19 10:18:30;;;;;;;10.10;9.10;;;39.80;59.40;;;;;;5014690;28;20523;-62
2023/08/19 10:21:04;;;;;;;9.50;8.70;;;39.60;60.00;;;;;;5018142;28;20456;-61
2023/08/19 10:23:32;;;;;;;9.20;8.40;;;39.40;59.80;;;;;;5018575;28;20501;-62
2023/08/19 10:25:59;;;;;;;8.90;8.10;;;39.40;59.50;;;;;;5018531;28;20496;-62
2023/08/19 10:28:28;;;;;;;10.17;9.20;;;39.50;59.00;;;;;;5018430;28;20523;-63
2023/08/19 10:31:08;;;;;;;9.50;8.60;;;39.40;60.20;;;;;;5018690;28;20519;-61
2023/08/19 10:33:42;;;;;;;8.70;7.80;;;39.20;59.80;;;;;;5019803;28;20493;-61
2023/08/19 10:36:10;;;;;;;9.37;8.50;;;39.10;60.30;;;;;;5022045;28;20433;-62
2023/08/19 10:38:46;;;;;;;8.37;7.67;;;38.90;61.60;;;;;;5023092;28;20488;-63
2023/08/19 10:41:36;;;;;;;8.30;7.60;;;38.60;60.50;;;;;;5024840;28;20516;-54
2023/08/19 10:44:05;;;;;;;9.50;8.50;;;38.50;61.80;;;;;;5037011;28;20521;-53
2023/08/19 10:46:33;;;;;;;8.93;8.13;;;38.40;61.90;;;;;;5022783;28;20469;-61
2023/08/19 10:49:06;;;;;;;11.37;10.27;;;38.30;62.10;;;;;;5036458;28;20469;-49
2023/08/19 10:51:47;;;;;;;10.23;9.23;;;38.20;64.00;;;;;;5040204;28;20422;-63
2023/08/19 10:54:15;;;;;;;11.57;10.37;;;37.90;63.00;;;;;;5026343;28;20507;-67
2023/08/19 10:56:52;;;;;;;8.20;7.50;;;37.60;66.20;;;;;;5030416;28;20512;-61
2023/08/19 10:59:21;;;;;;;8.57;7.80;;;37.40;63.90;;;;;;5030565;28;20471;-63
2023/08/19 11:01:48;;;;;;;9.50;8.63;;;37.30;62.90;;;;;;5020163;28;20451;-62
2023/08/19 11:04:20;;;;;;;9.27;8.57;;;37.10;64.60;;;;;;5018293;28;20476;-63
2023/08/19 11:06:52;;;;;;;9.40;8.60;;;36.90;64.30;;;;;;5037290;28;20428;-59
2023/08/19 11:09:19;;;;;;;9.10;6.83;;;36.60;64.30;;;;;;5018246;28;20489;-62
2023/08/19 11:11:46;;;;;;;8.57;7.83;;;36.40;63.90;;;;;;5022799;28;20448;-61
2023/08/19 11:14:16;;;;;;;7.23;6.57;;;36.20;64.40;;;;;;5027837;28;20873;-64
2023/08/19 11:16:48;;;;;;;7.63;7.00;;;36.00;64.40;;;;;;5034826;28;20452;-64
2023/08/19 11:19:17;;;;;;;7.90;7.10;;;35.80;64.90;;;;;;5021529;28;20500;-62
2023/08/19 11:21:45;;;;;;;7.73;6.93;;;35.80;67.20;;;;;;5020227;28;20496;-61
2023/08/19 11:24:12;;;;;;;8.47;7.67;;;35.60;65.70;;;;;;5017424;28;20552;-62
2023/08/19 11:26:40;;;;;;;8.80;7.70;;;35.60;65.60;;;;;;5037324;28;20460;-51
2023/08/19 11:29:10;;;;;;;9.23;8.43;;;35.60;65.30;;;;;;5029396;28;20488;-63
2023/08/19 11:31:38;;;;;;;7.90;7.30;;;35.30;65.50;;;;;;5019005;28;20457;-65
2023/08/19 11:34:07;;;;;;;8.37;7.67;;;35.10;69.00;;;;;;5017419;28;20496;-65
2023/08/19 11:36:36;;;;;;;7.37;6.77;;;35.10;66.90;;;;;;5022317;28;20749;-64
2023/08/19 11:39:04;;;;;;;9.20;7.70;;;34.90;66.10;;;;;;5024351;28;20484;-62
2023/08/19 11:41:31;;;;;;;8.67;7.87;;;34.90;68.40;;;;;;5031078;28;20452;-64
2023/08/19 11:43:59;;;;;;;8.30;7.50;;;34.80;70.50;;;;;;5022883;28;20519;-64
2023/08/19 11:46:29;;;;;;;9.33;8.43;;;34.80;68.10;;;;;;5026135;28;20451;-61
2023/08/19 11:48:58;;;;;;;8.77;7.93;;;34.70;69.60;;;;;;5023288;28;20441;-62
2023/08/19 11:51:26;;;;;;;9.97;8.97;;;34.70;68.90;;;;;;5021820;28;20799;-60
2023/08/19 11:54:01;;;;;;;9.33;8.53;;;34.60;70.10;;;;;;5023729;28;20492;-61
2023/08/19 11:56:28;;;;;;;9.40;8.50;;;34.50;71.90;;;;;;5028842;28;20429;-62
2023/08/19 11:58:55;;;;;;;10.57;9.57;;;34.30;70.50;;;;;;5028879;28;20484;-60
2023/08/19 12:01:24;;;;;;;10.00;8.90;;;34.10;72.30;;;;;;5028331;28;20418;-62
2023/08/19 12:03:54;;;;;;;34.20;25.53;;;33.90;73.20;;;;;;5027613;28;20441;-62
2023/08/19 12:06:21;;;;;;;12.67;11.37;;;33.80;75.20;;;;;;5027649;28;20449;-65
2023/08/19 12:08:48;;;;;;;8.50;7.73;;;33.80;77.70;;;;;;5027572;28;20441;-62
2023/08/19 12:11:25;;;;;;;9.57;8.77;;;33.70;73.80;;;;;;5028511;28;20972;-63
2023/08/19 12:13:52;;;;;;;8.87;8.10;;;33.70;73.70;;;;;;5028669;28;20563;-63
2023/08/19 12:16:19;;;;;;;8.57;7.87;;;33.60;75.00;;;;;;5026248;28;20537;-62
2023/08/19 12:18:46;;;;;;;9.43;8.57;;;33.50;73.80;;;;;;5026997;28;20503;-63
2023/08/19 12:21:13;;;;;;;8.63;7.93;;;33.50;76.10;;;;;;5027092;28;20984;-65
2023/08/19 12:23:40;;;;;;;8.30;7.50;;;33.50;74.80;;;;;;5017187;28;20472;-64
2023/08/19 12:26:07;;;;;;;9.17;8.20;;;33.50;75.10;;;;;;5016636;28;20910;-63
2023/08/19 12:28:35;;;;;;;8.80;8.10;;;33.50;75.10;;;;;;5016519;28;20541;-63
2023/08/19 12:31:02;;;;;;;8.87;7.70;;;33.60;75.70;;;;;;5016472;28;20469;-62
2023/08/19 12:33:29;;;;;;;10.27;8.93;;;33.60;77.00;;;;;;5016314;28;20584;-63
2023/08/19 12:35:56;;;;;;;10.20;8.40;;;33.70;77.10;;;;;;5016460;28;20544;-64
2023/08/19 12:38:23;;;;;;;9.93;8.80;;;33.70;77.40;;;;;;5016416;28;20477;-62
2023/08/19 12:40:50;;;;;;;9.93;9.03;;;33.70;78.70;;;;;;5016281;28;20539;-62